createdAt,value
2023-04-28T00:01:17.973Z,65.72
2023-04-28T00:06:21.508Z,68.09
2023-04-28T00:11:24.286Z,62.06
2023-04-28T00:16:27.130Z,56.50
2023-04-28T00:21:30.202Z,58.25
2023-04-28T00:26:33.616Z,61.29
2023-04-28T00:31:36.537Z,68.47
2023-04-28T00:36:39.575Z,65.00
2023-04-28T00:41:42.329Z,58.01
2023-04-28T00:46:45.229Z,55.95
2023-04-28T00:51:48.133Z,58.62
2023-04-28T00:56:51.883Z,60.80
2023-04-28T01:01:55.164Z,67.75
2023-04-28T01:06:59.274Z,65.44
2023-04-28T01:12:02.051Z,59.38
2023-04-28T01:17:05.117Z,54.56
2023-04-28T01:22:09.349Z,57.08
2023-04-28T01:27:12.561Z,59.81
2023-04-28T01:32:15.330Z,62.46
2023-04-28T01:37:18.083Z,69.50
2023-04-28T01:42:21.107Z,63.37
2023-04-28T01:47:23.911Z,57.18
2023-04-28T01:52:28.101Z,56.46
2023-04-28T01:57:30.947Z,59.16
2023-04-28T02:02:34.696Z,65.04
2023-04-28T02:07:37.736Z,65.71
2023-04-28T02:12:42.754Z,58.35
2023-04-28T02:17:45.741Z,55.29
2023-04-28T02:22:48.651Z,59.32
2023-04-28T02:27:51.368Z,65.42
2023-04-28T02:32:54.430Z,62.98
2023-04-28T02:37:57.330Z,56.03
2023-04-28T02:43:00.215Z,56.73
2023-04-28T02:48:04.800Z,59.64
2023-04-28T02:53:07.661Z,63.45
2023-04-28T02:58:10.568Z,66.51
2023-04-28T03:03:14.032Z,57.74
2023-04-28T03:08:17.075Z,53.65
2023-04-28T03:13:19.993Z,56.86
2023-04-28T03:18:22.714Z,59.69
2023-04-28T03:23:25.573Z,64.54
2023-04-28T03:28:28.278Z,65.57
2023-04-28T03:33:31.705Z,59.90
2023-04-28T03:38:34.516Z,54.03
2023-04-28T03:43:37.552Z,56.15
2023-04-28T03:48:40.529Z,58.93
2023-04-28T03:53:43.340Z,61.04
2023-04-28T03:58:46.348Z,67.38
2023-04-28T04:03:50.149Z,62.03
2023-04-28T04:08:53.165Z,54.72
2023-04-28T04:13:55.967Z,55.58
2023-04-28T04:18:58.732Z,58.31
2023-04-28T04:24:01.584Z,59.13
2023-04-28T04:29:04.377Z,60.25
2023-04-28T04:34:07.979Z,61.05
2023-04-28T04:39:10.691Z,65.94
2023-04-28T04:44:14.236Z,64.73
2023-04-28T04:49:18.057Z,56.01
2023-04-28T04:54:20.841Z,54.88
2023-04-28T04:59:23.640Z,57.18
2023-04-28T05:04:26.815Z,59.81
2023-04-28T05:09:30.881Z,60.54
2023-04-28T05:14:33.787Z,61.68
2023-04-28T05:19:36.895Z,64.95
2023-04-28T05:24:39.641Z,57.67
2023-04-28T05:29:42.446Z,58.43
2023-04-28T05:34:45.713Z,59.29
2023-04-28T05:39:48.620Z,58.60
2023-04-28T05:44:51.355Z,57.24
2023-04-28T05:49:54.149Z,53.81
2023-04-28T05:54:56.890Z,54.14
2023-04-28T05:59:59.606Z,53.14
2023-04-28T06:05:02.736Z,56.14
2023-04-28T06:10:07.266Z,55.86
2023-04-28T06:15:11.102Z,53.87
2023-04-28T06:20:14.306Z,51.34
2023-04-28T06:25:17.726Z,51.68
2023-04-28T06:30:23.326Z,49.14
2023-04-28T06:35:26.715Z,47.01
2023-04-28T06:40:29.608Z,45.92
2023-04-28T06:45:32.482Z,46.12
2023-04-28T06:50:35.217Z,45.12
2023-04-28T06:55:38.112Z,42.62
2023-04-28T07:00:41.022Z,41.14
2023-04-28T07:05:43.791Z,39.75
2023-04-28T07:10:47.134Z,39.27
2023-04-28T07:15:49.966Z,38.09
2023-04-28T07:20:52.773Z,37.44
2023-04-28T07:25:55.693Z,35.73
2023-04-28T07:30:58.854Z,36.11
2023-04-28T07:36:02.199Z,35.07
2023-04-28T07:41:07.701Z,34.15
2023-04-28T07:46:13.323Z,32.92
2023-04-28T07:51:16.638Z,32.44
2023-04-28T07:56:19.482Z,31.77
2023-04-28T08:01:22.222Z,31.22
2023-04-28T08:06:25.561Z,30.10
2023-04-28T08:11:28.955Z,30.18
2023-04-28T08:16:32.095Z,30.26
2023-04-28T08:21:35.058Z,27.92
2023-04-28T08:26:38.604Z,27.50
2023-04-28T08:31:41.893Z,26.85
2023-04-28T08:36:44.903Z,26.08
2023-04-28T08:41:47.935Z,27.53
2023-04-28T08:46:56.606Z,27.03
2023-04-28T08:52:00.641Z,25.38
2023-04-28T08:57:04.660Z,24.43
2023-04-28T09:02:09.207Z,25.22
2023-04-28T09:07:12.908Z,24.77
2023-04-28T09:12:16.560Z,22.95
2023-04-28T09:17:19.536Z,23.26
2023-04-28T09:22:28.742Z,23.26
2023-04-28T09:27:31.501Z,23.53
2023-04-28T09:32:34.410Z,21.51
2023-04-28T09:37:37.807Z,21.41
2023-04-28T09:42:48.028Z,21.66
2023-04-28T09:47:51.204Z,21.14
2023-04-28T09:52:58.191Z,20.02
2023-04-28T09:58:06.192Z,19.39
2023-04-28T10:03:10.759Z,18.99
2023-04-28T10:08:13.978Z,19.43
2023-04-28T10:13:18.106Z,18.92
2023-04-28T10:18:23.430Z,18.65
2023-04-28T10:23:55.728Z,17.55
2023-04-28T10:28:58.565Z,17.26
2023-04-28T10:34:22.293Z,17.08
2023-04-28T10:39:25.492Z,17.01
2023-04-28T10:44:28.291Z,17.32
2023-04-28T10:49:58.938Z,17.62
2023-04-28T10:55:42.862Z,16.81
2023-04-28T11:00:51.640Z,15.43
2023-04-28T11:06:20.819Z,16.03
2023-04-28T11:11:26.035Z,16.36
2023-04-28T11:16:28.894Z,17.39
2023-04-28T11:21:32.980Z,18.40
2023-04-28T11:26:38.366Z,19.71
2023-04-28T11:31:49.341Z,19.39
2023-04-28T11:36:54.131Z,20.46
2023-04-28T11:41:59.605Z,20.93
2023-04-28T11:47:04.048Z,19.29
2023-04-28T11:52:08.847Z,18.02
2023-04-28T11:57:19.437Z,16.56
2023-04-28T12:02:31.999Z,15.55
2023-04-28T12:07:45.691Z,16.50
2023-04-28T12:12:52.344Z,18.20
2023-04-28T12:17:56.307Z,19.52
2023-04-28T12:22:59.268Z,20.63
2023-04-28T12:28:03.206Z,21.23
2023-04-28T12:33:06.264Z,19.51
2023-04-28T12:38:12.072Z,18.35
2023-04-28T12:43:15.520Z,17.47
2023-04-28T12:48:18.813Z,17.73
2023-04-28T12:53:21.646Z,18.32
2023-04-28T12:58:24.535Z,19.44
2023-04-28T13:03:28.695Z,19.99
2023-04-28T13:08:34.118Z,20.27
2023-04-28T13:13:37.677Z,20.28
2023-04-28T13:18:40.545Z,20.23
2023-04-28T13:23:43.359Z,18.79
2023-04-28T13:28:49.315Z,16.94
2023-04-28T13:33:52.347Z,15.14
2023-04-28T13:38:55.885Z,14.54
2023-04-28T13:43:58.747Z,14.89
2023-04-28T13:49:01.858Z,15.16
2023-04-28T13:54:08.905Z,15.48
2023-04-28T13:59:13.696Z,15.65
2023-04-28T14:04:16.916Z,15.64
2023-04-28T14:09:19.953Z,15.72
2023-04-28T14:14:22.925Z,15.69
2023-04-28T14:19:27.163Z,15.00
2023-04-28T14:24:29.932Z,14.27
2023-04-28T14:29:32.702Z,13.98
2023-04-28T14:34:35.495Z,14.05
2023-04-28T14:39:39.994Z,14.58
2023-04-28T14:44:43.205Z,14.44
2023-04-28T14:49:47.897Z,14.12
2023-04-28T14:54:51.588Z,14.48
2023-04-28T14:59:54.907Z,15.10
2023-04-28T15:04:58.403Z,15.47
2023-04-28T15:10:01.409Z,15.91
2023-04-28T15:15:04.492Z,16.07
2023-04-28T15:20:08.238Z,15.98
2023-04-28T15:25:11.569Z,15.86
2023-04-28T15:30:14.570Z,17.26
2023-04-28T15:35:17.489Z,19.28
2023-04-28T15:40:21.973Z,20.38
2023-04-28T15:45:24.916Z,20.73
2023-04-28T15:50:27.823Z,21.32
2023-04-28T15:55:30.933Z,22.02
2023-04-28T16:00:34.373Z,22.54
2023-04-28T16:05:38.606Z,22.91
2023-04-28T16:10:42.621Z,23.56
2023-04-28T16:15:46.297Z,24.14
2023-04-28T16:20:49.359Z,24.61
2023-04-28T16:25:54.130Z,24.98
2023-04-28T16:30:57.194Z,25.51
2023-04-28T16:36:00.116Z,25.55
2023-04-28T16:41:02.890Z,25.91
2023-04-28T16:46:05.927Z,26.39
2023-04-28T16:51:11.890Z,28.07
2023-04-28T16:56:14.701Z,27.60
2023-04-28T17:01:17.745Z,28.14
2023-04-28T17:06:21.010Z,29.27
2023-04-28T17:11:23.741Z,28.79
2023-04-28T17:16:30.533Z,28.53
2023-04-28T17:21:33.872Z,29.34
2023-04-28T17:26:37.498Z,29.79
2023-04-28T17:31:40.385Z,29.17
2023-04-28T17:36:43.464Z,29.19
2023-04-28T17:41:47.008Z,29.40
2023-04-28T17:46:49.952Z,30.60
2023-04-28T17:51:52.880Z,31.30
2023-04-28T17:56:55.995Z,32.36
2023-04-28T18:01:59.147Z,32.48
2023-04-28T18:07:02.745Z,32.64
2023-04-28T18:12:07.035Z,33.00
2023-04-28T18:17:10.184Z,32.60
2023-04-28T18:22:12.905Z,33.11
2023-04-28T18:27:15.806Z,33.51
2023-04-28T18:32:18.669Z,34.74
2023-04-28T18:37:21.473Z,35.58
2023-04-28T18:42:27.413Z,36.44
2023-04-28T18:47:31.106Z,37.28
2023-04-28T18:52:34.253Z,38.06
2023-04-28T18:57:37.013Z,38.83
2023-04-28T19:02:40.342Z,38.28
2023-04-28T19:07:43.167Z,38.05
2023-04-28T19:12:46.050Z,38.25
2023-04-28T19:17:48.954Z,39.43
2023-04-28T19:22:51.923Z,40.06
2023-04-28T19:27:54.817Z,41.69
2023-04-28T19:32:57.685Z,41.48
2023-04-28T19:38:00.522Z,42.24
2023-04-28T19:43:04.193Z,42.90
2023-04-28T19:48:07.012Z,43.08
2023-04-28T19:53:10.012Z,42.15
2023-04-28T19:58:14.117Z,42.33
2023-04-28T20:03:17.446Z,42.34
2023-04-28T20:08:20.617Z,43.64
2023-04-28T20:13:23.525Z,43.34
2023-04-28T20:18:26.726Z,43.29
2023-04-28T20:23:29.609Z,44.22
2023-04-28T20:28:32.427Z,43.59
2023-04-28T20:33:35.356Z,43.70
2023-04-28T20:38:38.448Z,44.18
2023-04-28T20:43:42.237Z,43.75
2023-04-28T20:48:45.038Z,44.19
2023-04-28T20:53:47.968Z,46.28
2023-04-28T20:58:50.833Z,47.58
2023-04-28T21:03:53.869Z,48.30
2023-04-28T21:08:56.789Z,49.15
2023-04-28T21:13:59.532Z,49.96
2023-04-28T21:19:02.496Z,50.93
2023-04-28T21:24:06.838Z,51.11
2023-04-28T21:29:10.365Z,52.05
2023-04-28T21:34:13.149Z,52.96
2023-04-28T21:39:15.818Z,53.04
2023-04-28T21:44:19.583Z,53.48
2023-04-28T21:49:22.376Z,53.85
2023-04-28T21:54:25.180Z,53.97
2023-04-28T21:59:28.905Z,54.43
2023-04-28T22:04:32.130Z,54.13
2023-04-28T22:09:35.218Z,54.35
2023-04-28T22:14:41.326Z,55.63
2023-04-28T22:19:44.613Z,56.46
2023-04-28T22:24:47.419Z,56.72
2023-04-28T22:29:51.242Z,56.09
2023-04-28T22:34:54.711Z,56.26
2023-04-28T22:39:57.536Z,56.70
2023-04-28T22:45:03.188Z,56.47
2023-04-28T22:50:10.921Z,56.16
2023-04-28T22:55:14.544Z,56.76
2023-04-28T23:00:17.493Z,57.52
2023-04-28T23:05:20.494Z,57.72
2023-04-28T23:10:23.265Z,57.86
2023-04-28T23:15:26.156Z,58.31
2023-04-28T23:20:28.931Z,57.94
2023-04-28T23:25:32.508Z,58.16
2023-04-28T23:30:36.124Z,58.32
2023-04-28T23:35:38.931Z,58.58
2023-04-28T23:40:41.992Z,58.56
2023-04-28T23:45:44.780Z,58.38
2023-04-28T23:50:48.334Z,58.71
2023-04-28T23:55:51.169Z,59.08
